Time;durP1;ratioP1;P1;durP2;ratioP2;P2;SDS_P1;SDS_P2;PMS_P1;PMS_P2;Temp;Humidity;BMP_temperature;BMP_pressure;BME280_temperature;BME280_humidity;BME280_pressure;Samples;Min_cycle;Max_cycle;Signal;HPM_P1;HPM_P2
2022/01/21 00:02:09;;;;;;;14.20;1.97;;;5.30;99.90;;;;;;5126282;27;37017;-80
2022/01/21 00:04:35;;;;;;;20.17;2.47;;;5.10;99.90;;;;;;5141578;27;35269;-80
2022/01/21 00:07:01;;;;;;;19.70;1.70;;;4.80;99.90;;;;;;5146928;27;37698;-80
2022/01/21 00:09:28;;;;;;;20.07;2.83;;;4.60;99.90;;;;;;5148598;27;38083;-79
2022/01/21 00:11:54;;;;;;;17.27;2.43;;;4.60;99.90;;;;;;5139319;27;36788;-79
2022/01/21 00:14:20;;;;;;;18.20;2.13;;;4.50;99.90;;;;;;5146334;27;37735;-79
2022/01/21 00:16:46;;;;;;;25.60;2.17;;;4.50;99.90;;;;;;5126898;27;38513;-80
2022/01/21 00:19:15;;;;;;;24.63;2.73;;;4.50;99.90;;;;;;5116947;27;38578;-78
2022/01/21 00:32:39;;;;;;;9.53;2.03;;;4.50;99.90;;;;;;5123462;27;48740;-78
2022/01/21 00:35:06;;;;;;;12.43;1.50;;;4.50;99.90;;;;;;5110604;27;36316;-78
2022/01/21 00:37:33;;;;;;;12.97;1.77;;;4.50;99.90;;;;;;5125211;27;39945;-78
2022/01/21 00:40:00;;;;;;;11.50;1.90;;;4.50;99.90;;;;;;5115121;27;38236;-78
2022/01/21 00:42:49;;;;;;;16.30;2.47;;;4.50;99.90;;;;;;5116281;27;47835;-77
2022/01/21 00:45:17;;;;;;;17.27;2.00;;;4.60;99.90;;;;;;5114066;27;36304;-79
2022/01/21 00:47:44;;;;;;;12.43;1.77;;;4.60;99.90;;;;;;5121977;27;38274;-78
2022/01/21 00:50:12;;;;;;;13.20;1.97;;;4.70;99.90;;;;;;5114104;27;39674;-78
2022/01/21 00:52:38;;;;;;;11.73;1.93;;;4.60;99.90;;;;;;5133759;27;36642;-78
2022/01/21 00:55:06;;;;;;;12.97;1.77;;;4.60;99.90;;;;;;5134178;27;36472;-78
2022/01/21 00:57:32;;;;;;;17.87;2.40;;;4.40;99.90;;;;;;5139161;27;37732;-79
2022/01/21 00:59:58;;;;;;;15.53;1.80;;;4.40;99.90;;;;;;5130010;27;38502;-78
2022/01/21 01:02:24;;;;;;;17.40;1.93;;;4.40;99.90;;;;;;5136953;27;37879;-78
2022/01/21 01:04:50;;;;;;;16.23;2.07;;;4.40;99.90;;;;;;5132758;27;37895;-78
2022/01/21 01:07:17;;;;;;;15.67;1.70;;;4.40;99.90;;;;;;5131259;27;39511;-78
2022/01/21 01:09:43;;;;;;;14.73;1.70;;;4.50;99.90;;;;;;5113690;27;37937;-79
2022/01/21 01:20:08;;;;;;;15.23;1.77;;;4.60;99.90;;;;;;5121528;27;37293;-79
2022/01/21 01:22:54;;;;;;;13.23;1.67;;;4.60;99.90;;;;;;5132351;27;36878;-79
2022/01/21 01:28:05;;;;;;;17.60;1.90;;;4.60;99.90;;;;;;5129079;27;39513;-78
2022/01/21 01:30:33;;;;;;;5.47;1.47;;;4.70;99.90;;;;;;5119536;27;37861;-78
2022/01/21 01:33:01;;;;;;;6.10;1.13;;;4.70;99.90;;;;;;5121121;27;36679;-79
2022/01/21 01:35:31;;;;;;;11.00;1.77;;;4.70;99.90;;;;;;5116548;27;48665;-78
2022/01/21 01:40:43;;;;;;;4.60;1.57;;;4.70;99.90;;;;;;5122128;27;49570;-79
2022/01/21 01:51:18;;;;;;;13.50;1.20;;;4.90;99.90;;;;;;5115891;27;40225;-80
2022/01/21 01:53:47;;;;;;;9.63;1.50;;;4.80;99.90;;;;;;5121284;27;37783;-79
2022/01/21 01:56:22;;;;;;;8.10;0.80;;;4.70;99.90;;;;;;5121629;27;37326;-80
2022/01/21 01:58:48;;;;;;;8.37;1.00;;;4.70;99.90;;;;;;5112650;27;37328;-79
2022/01/21 02:01:15;;;;;;;8.33;1.10;;;4.70;99.90;;;;;;5114626;27;39046;-79
2022/01/21 02:03:41;;;;;;;5.40;1.37;;;4.60;99.90;;;;;;5110195;27;38498;-79
2022/01/21 02:06:07;;;;;;;12.00;2.70;;;4.70;99.90;;;;;;5099102;27;38188;-79
2022/01/21 02:08:33;;;;;;;8.57;1.53;;;4.70;99.90;;;;;;5113864;27;38734;-79
2022/01/21 02:10:59;;;;;;;6.03;1.03;;;4.70;99.90;;;;;;5110579;27;38330;-78
2022/01/21 02:13:33;;;;;;;4.40;1.00;;;4.70;99.90;;;;;;5116063;27;39595;-78
2022/01/21 02:16:09;;;;;;;10.43;1.10;;;4.70;99.90;;;;;;5107862;27;37264;-79
2022/01/21 02:21:30;;;;;;;12.83;1.47;;;4.60;99.90;;;;;;5109812;27;38778;-79
2022/01/21 02:23:59;;;;;;;4.13;0.93;;;4.60;99.90;;;;;;5107672;27;36684;-79
2022/01/21 02:26:25;;;;;;;13.10;1.03;;;4.50;99.90;;;;;;5119359;27;37334;-79
2022/01/21 02:28:53;;;;;;;7.57;0.90;;;4.50;99.90;;;;;;5111724;27;39687;-79
2022/01/21 02:31:19;;;;;;;9.43;1.20;;;4.50;99.90;;;;;;5119746;27;38390;-78
2022/01/21 02:33:46;;;;;;;10.20;1.40;;;4.40;99.90;;;;;;5117151;27;38831;-78
2022/01/21 02:36:12;;;;;;;6.87;1.30;;;4.40;99.90;;;;;;5124553;27;37122;-78
2022/01/21 02:38:38;;;;;;;7.50;1.40;;;4.30;99.90;;;;;;5118379;27;38538;-78
2022/01/21 02:41:04;;;;;;;8.37;0.87;;;4.30;99.90;;;;;;5122753;27;40130;-78
2022/01/21 02:43:30;;;;;;;8.57;1.40;;;4.30;99.90;;;;;;5123725;27;38399;-78
2022/01/21 02:45:56;;;;;;;11.20;0.90;;;4.30;99.90;;;;;;5125101;27;38033;-79
2022/01/21 02:48:23;;;;;;;17.23;2.43;;;4.20;99.90;;;;;;5123197;27;39663;-79
2022/01/21 02:50:49;;;;;;;9.90;1.07;;;4.20;99.90;;;;;;5122963;27;38453;-78
2022/01/21 02:55:44;;;;;;;7.47;1.60;;;4.20;99.90;;;;;;5117579;27;37850;-79
2022/01/21 02:58:10;;;;;;;8.13;1.10;;;4.20;99.90;;;;;;5116826;27;40744;-79
2022/01/21 03:00:37;;;;;;;5.53;0.97;;;4.20;99.90;;;;;;5118871;27;39496;-79
2022/01/21 03:03:04;;;;;;;12.43;1.40;;;4.30;99.90;;;;;;5122840;27;38383;-78
2022/01/21 03:05:31;;;;;;;9.87;1.43;;;4.30;99.90;;;;;;5156078;27;37337;-79
2022/01/21 03:07:57;;;;;;;13.87;1.40;;;4.40;99.90;;;;;;5145288;27;40650;-79
2022/01/21 03:10:23;;;;;;;9.23;1.37;;;4.50;99.90;;;;;;5149647;27;38800;-79
2022/01/21 03:12:49;;;;;;;7.27;1.40;;;4.50;99.90;;;;;;5146736;27;38404;-79
2022/01/21 03:15:15;;;;;;;5.83;1.07;;;4.60;99.90;;;;;;5161844;27;38181;-80
2022/01/21 03:17:41;;;;;;;7.70;1.07;;;4.60;99.90;;;;;;5154560;27;37737;-79
2022/01/21 03:20:08;;;;;;;6.23;1.00;;;4.50;99.90;;;;;;5167858;27;38677;-79
2022/01/21 03:22:36;;;;;;;5.97;0.97;;;4.50;99.90;;;;;;5143412;27;36739;-77
2022/01/21 03:25:04;;;;;;;4.47;0.90;;;4.40;99.90;;;;;;5143869;27;37702;-78
2022/01/21 03:27:30;;;;;;;8.23;1.20;;;4.30;99.90;;;;;;5156031;27;47623;-80
2022/01/21 03:29:57;;;;;;;9.13;1.20;;;4.20;99.90;;;;;;5155091;27;39036;-81
2022/01/21 03:32:26;;;;;;;7.73;1.00;;;4.10;99.90;;;;;;5160776;27;37868;-80
2022/01/21 03:34:52;;;;;;;9.77;1.20;;;4.00;99.90;;;;;;5151016;27;38115;-78
2022/01/21 03:37:18;;;;;;;9.07;1.40;;;3.90;99.90;;;;;;5152363;27;41499;-79
2022/01/21 03:39:45;;;;;;;9.07;0.90;;;3.80;99.90;;;;;;5148349;27;38928;-79
2022/01/21 03:42:11;;;;;;;8.67;1.00;;;3.80;99.90;;;;;;5138188;27;39069;-79
2022/01/21 03:44:37;;;;;;;8.87;1.10;;;3.80;99.90;;;;;;5149732;27;37261;-79
2022/01/21 03:47:04;;;;;;;8.93;0.87;;;3.70;99.90;;;;;;5147116;27;40552;-79
2022/01/21 03:49:37;;;;;;;7.97;1.00;;;3.70;99.90;;;;;;5140440;27;38920;-78
2022/01/21 03:52:04;;;;;;;3.17;0.70;;;3.70;99.90;;;;;;5138300;27;38406;-79
2022/01/21 03:54:31;;;;;;;5.23;0.80;;;3.80;99.90;;;;;;5140526;27;38614;-78
2022/01/21 03:56:57;;;;;;;6.53;1.83;;;3.70;99.90;;;;;;5136291;27;39549;-78
2022/01/21 03:59:23;;;;;;;6.27;0.87;;;3.70;99.90;;;;;;5146510;27;39027;-79
2022/01/21 04:01:49;;;;;;;8.97;1.13;;;3.60;99.90;;;;;;5153080;27;38775;-78
2022/01/21 04:04:15;;;;;;;7.43;0.90;;;3.60;99.90;;;;;;5140724;27;37667;-79
2022/01/21 04:06:41;;;;;;;10.43;1.17;;;3.60;99.90;;;;;;5145284;27;39582;-78
2022/01/21 04:09:07;;;;;;;6.43;1.10;;;3.60;99.90;;;;;;5143256;27;39903;-78
2022/01/21 04:11:33;;;;;;;5.60;1.00;;;3.70;99.90;;;;;;5139292;27;38516;-78
2022/01/21 04:13:59;;;;;;;7.47;0.80;;;3.70;99.90;;;;;;5144694;27;38032;-78
2022/01/21 04:16:25;;;;;;;8.53;1.20;;;3.80;99.90;;;;;;5146490;27;40015;-79
2022/01/21 04:18:52;;;;;;;18.27;1.60;;;3.80;99.90;;;;;;5146263;27;40194;-79
2022/01/21 04:21:18;;;;;;;9.77;1.00;;;4.00;99.90;;;;;;5149022;27;38505;-78
2022/01/21 04:23:44;;;;;;;11.00;2.20;;;4.10;99.90;;;;;;5146359;27;38676;-78
2022/01/21 04:26:10;;;;;;;7.53;1.23;;;4.20;99.90;;;;;;5153686;27;38892;-78
2022/01/21 04:28:36;;;;;;;10.93;1.60;;;4.30;99.90;;;;;;5142021;27;39925;-80
2022/01/21 04:31:02;;;;;;;12.47;1.53;;;4.40;99.90;;;;;;5156825;27;39485;-79
2022/01/21 04:33:28;;;;;;;7.03;2.13;;;4.50;99.90;;;;;;5159022;27;37400;-79
2022/01/21 04:35:54;;;;;;;8.83;1.27;;;4.60;99.90;;;;;;5162623;27;38943;-80
2022/01/21 04:38:23;;;;;;;15.50;1.93;;;4.60;99.90;;;;;;5157631;27;38485;-79
2022/01/21 04:41:01;;;;;;;12.93;1.50;;;4.40;99.90;;;;;;5163364;27;37745;-79
2022/01/21 04:48:56;;;;;;;18.77;2.07;;;4.40;99.90;;;;;;5161923;27;39228;-79
2022/01/21 04:51:27;;;;;;;14.50;1.73;;;4.40;99.90;;;;;;5159762;27;37436;-79
2022/01/21 04:53:54;;;;;;;17.43;2.23;;;4.50;99.90;;;;;;5145240;27;38892;-81
2022/01/21 04:56:20;;;;;;;12.07;1.80;;;4.60;99.90;;;;;;5146836;27;40681;-80
2022/01/21 04:58:47;;;;;;;11.13;1.53;;;4.60;99.90;;;;;;5146436;27;39226;-78
2022/01/21 05:01:13;;;;;;;14.47;1.53;;;4.50;99.90;;;;;;5151630;27;37746;-79
2022/01/21 05:03:41;;;;;;;9.57;2.00;;;4.40;99.90;;;;;;5154496;27;36954;-79
2022/01/21 05:06:08;;;;;;;5.97;1.00;;;4.40;99.90;;;;;;5142148;27;39827;-79
2022/01/21 05:08:50;;;;;;;6.63;1.17;;;4.30;99.90;;;;;;5153740;27;36774;-80
2022/01/21 05:11:17;;;;;;;9.05;1.25;;;4.20;99.90;;;;;;5151962;27;37373;-78
2022/01/21 05:13:45;;;;;;;9.07;1.43;;;4.10;99.90;;;;;;5165411;27;37203;-79
2022/01/21 05:16:30;;;;;;;12.20;2.13;;;4.10;99.90;;;;;;5147062;27;38319;-79
2022/01/21 05:18:58;;;;;;;13.60;1.87;;;4.00;99.90;;;;;;5148992;27;37354;-79
2022/01/21 05:21:24;;;;;;;7.50;1.07;;;3.80;99.90;;;;;;5138503;27;36606;-79
2022/01/21 05:23:50;;;;;;;12.50;1.80;;;3.80;99.90;;;;;;5155605;27;38140;-79
2022/01/21 05:26:17;;;;;;;7.27;1.43;;;3.70;99.90;;;;;;5146828;27;39587;-78
2022/01/21 05:28:43;;;;;;;8.90;1.53;;;3.60;99.90;;;;;;5151286;27;38190;-78
2022/01/21 05:31:09;;;;;;;13.57;2.83;;;3.50;99.90;;;;;;5132535;27;36760;-79
2022/01/21 05:33:35;;;;;;;19.00;4.57;;;3.50;99.90;;;;;;5138112;27;36389;-80
2022/01/21 05:36:01;;;;;;;22.80;5.40;;;3.40;99.90;;;;;;5155104;27;38923;-79
2022/01/21 05:38:27;;;;;;;16.07;4.60;;;3.50;99.90;;;;;;5145010;27;47147;-79
2022/01/21 05:40:53;;;;;;;13.87;4.53;;;3.60;99.90;;;;;;5146505;27;36650;-79
2022/01/21 05:43:19;;;;;;;24.90;4.77;;;3.70;99.90;;;;;;5160949;27;37649;-78
2022/01/21 05:48:30;;;;;;;17.13;3.17;;;3.90;99.90;;;;;;5156569;27;49905;-79
2022/01/21 05:50:56;;;;;;;19.13;3.40;;;4.00;99.90;;;;;;5139210;27;37797;-79
2022/01/21 05:53:23;;;;;;;16.13;4.43;;;4.00;99.90;;;;;;5159822;27;41244;-79
2022/01/21 05:55:49;;;;;;;14.83;2.63;;;4.00;99.90;;;;;;5152613;27;39796;-79
2022/01/21 05:58:15;;;;;;;20.10;2.40;;;4.20;99.90;;;;;;5144581;27;37375;-79
2022/01/21 06:00:43;;;;;;;14.57;1.93;;;4.30;99.90;;;;;;5148401;27;37023;-79
2022/01/21 06:03:10;;;;;;;19.70;2.10;;;4.20;99.90;;;;;;5143350;27;38689;-79
2022/01/21 06:05:37;;;;;;;9.90;1.70;;;4.10;99.90;;;;;;5140385;27;39920;-78
2022/01/21 06:08:04;;;;;;;16.93;2.63;;;4.10;99.90;;;;;;5146533;27;37491;-79
2022/01/21 06:10:31;;;;;;;12.77;1.60;;;4.00;99.90;;;;;;5143044;27;38026;-79
2022/01/21 06:12:57;;;;;;;8.17;2.50;;;4.10;99.90;;;;;;5150945;27;39047;-79
2022/01/21 06:15:24;;;;;;;18.50;2.13;;;4.10;99.90;;;;;;5142705;27;37780;-79
2022/01/21 06:17:51;;;;;;;14.47;1.80;;;4.20;99.90;;;;;;5150408;27;38403;-79
2022/01/21 06:20:18;;;;;;;22.37;3.60;;;4.20;99.90;;;;;;5159099;27;38507;-79
2022/01/21 06:22:44;;;;;;;18.60;2.87;;;4.20;99.90;;;;;;5143063;27;37038;-78
2022/01/21 06:25:10;;;;;;;13.67;1.80;;;4.20;99.90;;;;;;5136976;27;40807;-79
2022/01/21 06:27:38;;;;;;;12.67;1.60;;;4.20;99.90;;;;;;5139264;27;38729;-77
2022/01/21 06:30:06;;;;;;;15.43;1.80;;;4.20;99.90;;;;;;5138840;27;38965;-78
2022/01/21 06:32:32;;;;;;;22.33;3.07;;;4.20;99.90;;;;;;5143039;27;47347;-78
2022/01/21 06:34:58;;;;;;;19.73;2.50;;;4.20;99.90;;;;;;5154600;27;38693;-78
2022/01/21 06:37:24;;;;;;;16.20;1.97;;;4.40;99.90;;;;;;5150499;27;38958;-79
2022/01/21 06:39:50;;;;;;;19.77;2.53;;;4.40;99.90;;;;;;5157481;27;38181;-78
2022/01/21 06:42:22;;;;;;;14.10;1.90;;;4.30;99.90;;;;;;5144004;27;35943;-78
2022/01/21 06:44:48;;;;;;;24.37;2.93;;;4.40;99.90;;;;;;5137920;27;39330;-78
2022/01/21 06:47:14;;;;;;;12.67;2.50;;;4.50;99.90;;;;;;5143654;27;39192;-79
2022/01/21 06:49:40;;;;;;;22.90;2.60;;;4.80;99.90;;;;;;5152814;27;38405;-78
2022/01/21 06:52:07;;;;;;;19.53;2.43;;;4.90;99.90;;;;;;5141825;27;37538;-78
2022/01/21 06:54:33;;;;;;;15.67;2.13;;;5.10;99.90;;;;;;5142768;27;40720;-79
2022/01/21 06:56:59;;;;;;;16.50;2.27;;;5.20;99.90;;;;;;5141981;27;38880;-81
2022/01/21 06:59:25;;;;;;;19.60;2.10;;;5.20;99.90;;;;;;5155510;27;38441;-79
2022/01/21 07:01:52;;;;;;;11.53;2.40;;;5.20;99.90;;;;;;5154510;27;38310;-78
2022/01/21 07:04:18;;;;;;;15.37;3.53;;;5.20;99.90;;;;;;5150242;27;38651;-76
2022/01/21 07:06:44;;;;;;;18.87;2.43;;;5.20;99.90;;;;;;5148386;27;39173;-77
2022/01/21 07:09:11;;;;;;;15.70;2.90;;;5.20;99.90;;;;;;5143428;27;38463;-77
2022/01/21 07:11:38;;;;;;;14.40;2.90;;;5.20;99.90;;;;;;5149765;27;38670;-77
2022/01/21 07:14:04;;;;;;;18.43;3.67;;;5.20;99.90;;;;;;5142391;27;39454;-77
2022/01/21 07:16:30;;;;;;;27.43;8.13;;;5.10;99.90;;;;;;5142525;27;39113;-77
2022/01/21 07:18:56;;;;;;;19.17;5.40;;;5.00;99.90;;;;;;5165783;27;38350;-77
2022/01/21 07:21:22;;;;;;;26.27;5.77;;;5.10;99.90;;;;;;5144187;27;38184;-77
2022/01/21 07:23:48;;;;;;;18.10;6.10;;;5.00;99.90;;;;;;5145122;27;40113;-78
2022/01/21 07:26:14;;;;;;;21.37;5.60;;;5.00;99.90;;;;;;5161455;27;38213;-77
2022/01/21 07:28:41;;;;;;;26.73;4.67;;;5.10;99.90;;;;;;5147316;27;37837;-77
2022/01/21 07:31:07;;;;;;;17.90;4.27;;;5.00;99.90;;;;;;5142239;27;38586;-77
2022/01/21 07:33:33;;;;;;;17.03;3.20;;;5.00;99.90;;;;;;5163975;27;38797;-80
2022/01/21 07:35:59;;;;;;;17.60;2.77;;;5.00;99.90;;;;;;5105173;22;38143;-78
2022/01/21 07:38:25;;;;;;;12.20;2.87;;;5.00;99.90;;;;;;5048660;28;37954;-78
2022/01/21 07:40:51;;;;;;;16.03;2.80;;;5.00;99.90;;;;;;5057594;28;38803;-78
2022/01/21 07:43:18;;;;;;;20.87;2.97;;;5.10;99.90;;;;;;5064159;28;39228;-77
2022/01/21 07:45:44;;;;;;;19.27;2.23;;;5.20;99.90;;;;;;5066456;28;38916;-77
2022/01/21 07:48:10;;;;;;;17.97;2.30;;;5.50;99.90;;;;;;5062647;28;38194;-77
2022/01/21 07:50:36;;;;;;;9.00;2.47;;;5.60;99.90;;;;;;5046273;28;37765;-77
2022/01/21 07:53:03;;;;;;;15.03;3.07;;;5.60;99.90;;;;;;5047215;28;38625;-77
2022/01/21 07:55:29;;;;;;;19.17;4.10;;;5.50;99.90;;;;;;5062398;28;39666;-77
2022/01/21 07:57:55;;;;;;;28.70;7.10;;;5.50;99.90;;;;;;5050173;28;37220;-78
2022/01/21 08:00:22;;;;;;;22.10;6.47;;;5.50;99.90;;;;;;5058088;28;37003;-78
2022/01/21 08:02:48;;;;;;;23.83;4.00;;;5.50;99.90;;;;;;5062734;28;38525;-77
2022/01/21 08:05:14;;;;;;;15.53;3.50;;;5.50;99.90;;;;;;5043577;27;38872;-77
2022/01/21 08:07:40;;;;;;;18.07;3.13;;;5.70;99.90;;;;;;5027346;28;38184;-78
2022/01/21 08:10:07;;;;;;;18.07;3.03;;;5.80;99.90;;;;;;5041008;28;38102;-78
2022/01/21 08:12:33;;;;;;;14.10;2.63;;;5.90;99.90;;;;;;5026454;28;40126;-78
2022/01/21 08:14:59;;;;;;;12.83;2.00;;;5.90;99.90;;;;;;5041816;28;38311;-77
2022/01/21 08:17:29;;;;;;;11.07;2.23;;;6.00;99.90;;;;;;5066066;28;37548;-79
2022/01/21 08:19:57;;;;;;;13.27;2.87;;;6.20;99.90;;;;;;5063142;28;38127;-79
2022/01/21 08:22:24;;;;;;;12.70;1.73;;;6.30;99.90;;;;;;5079599;27;37785;-80
2022/01/21 08:24:50;;;;;;;9.37;1.70;;;6.40;99.90;;;;;;5062130;28;37578;-80
2022/01/21 08:27:16;;;;;;;11.30;1.63;;;6.40;99.90;;;;;;5064582;27;37267;-80
2022/01/21 08:29:42;;;;;;;15.83;2.00;;;6.50;99.90;;;;;;5070907;28;39175;-79
2022/01/21 08:32:09;;;;;;;12.10;2.10;;;6.50;99.90;;;;;;5068527;27;37353;-80
2022/01/21 08:34:35;;;;;;;10.30;1.80;;;6.50;99.90;;;;;;5082445;28;38461;-80
2022/01/21 08:37:02;;;;;;;19.00;1.90;;;6.50;99.90;;;;;;5064626;28;38038;-77
2022/01/21 08:39:28;;;;;;;15.67;1.87;;;6.60;99.90;;;;;;5065526;28;36619;-79
2022/01/21 08:41:54;;;;;;;13.73;2.27;;;6.60;99.90;;;;;;5067040;28;39455;-80
2022/01/21 08:44:20;;;;;;;13.07;2.20;;;6.60;99.90;;;;;;5066668;27;39700;-79
2022/01/21 08:46:47;;;;;;;14.90;2.10;;;6.60;99.90;;;;;;5064040;28;37513;-79
2022/01/21 08:49:13;;;;;;;12.70;1.60;;;6.60;99.90;;;;;;5086715;28;36927;-77
2022/01/21 08:51:48;;;;;;;9.30;2.00;;;6.60;99.90;;;;;;5083791;27;39380;-78
2022/01/21 08:54:16;;;;;;;13.07;2.23;;;6.60;99.90;;;;;;5080173;28;39297;-79
2022/01/21 08:56:44;;;;;;;13.07;2.10;;;6.60;99.90;;;;;;5062854;28;37482;-79
2022/01/21 08:59:10;;;;;;;15.53;2.27;;;6.70;99.90;;;;;;5081927;28;37438;-78
2022/01/21 09:01:36;;;;;;;15.67;2.10;;;6.70;99.90;;;;;;5066572;28;39957;-79
2022/01/21 09:04:03;;;;;;;12.60;2.00;;;6.80;99.90;;;;;;5081160;28;38848;-78
2022/01/21 09:06:29;;;;;;;17.93;2.33;;;6.90;99.90;;;;;;5066090;28;39548;-79
2022/01/21 09:08:56;;;;;;;11.20;2.07;;;7.00;99.90;;;;;;5085478;28;38149;-79
2022/01/21 09:11:22;;;;;;;17.00;2.50;;;7.00;99.90;;;;;;5084874;27;39620;-79
2022/01/21 09:13:49;;;;;;;15.53;3.17;;;7.00;99.90;;;;;;5065288;28;38799;-79
2022/01/21 09:16:17;;;;;;;13.67;2.30;;;7.00;99.90;;;;;;5064122;27;39329;-79
2022/01/21 09:18:50;;;;;;;12.93;2.30;;;7.10;99.90;;;;;;5064712;28;38650;-80
2022/01/21 09:21:21;;;;;;;21.13;2.67;;;7.10;99.90;;;;;;5079178;27;37459;-79
2022/01/21 09:23:49;;;;;;;19.80;2.80;;;7.20;99.90;;;;;;5085705;28;39292;-80
2022/01/21 09:26:17;;;;;;;14.60;2.77;;;7.30;99.90;;;;;;5066586;27;36317;-79
2022/01/21 09:28:44;;;;;;;17.07;2.90;;;7.40;99.90;;;;;;5060114;28;37966;-79
2022/01/21 09:31:10;;;;;;;15.20;2.73;;;7.50;99.90;;;;;;5063188;27;39465;-79
2022/01/21 09:33:37;;;;;;;21.17;3.27;;;7.60;99.90;;;;;;5084368;28;38250;-79
2022/01/21 09:36:04;;;;;;;14.47;2.27;;;7.60;99.90;;;;;;5062529;27;39571;-79
2022/01/21 09:38:30;;;;;;;14.50;3.07;;;7.70;99.90;;;;;;5070792;28;36156;-79
2022/01/21 09:40:57;;;;;;;13.57;3.13;;;7.70;99.90;;;;;;5063437;28;40726;-79
2022/01/21 09:43:23;;;;;;;17.17;3.93;;;7.80;99.90;;;;;;5063638;28;38713;-79
2022/01/21 09:45:53;;;;;;;23.70;3.90;;;7.80;99.90;;;;;;5065262;28;39444;-79
2022/01/21 09:48:30;;;;;;;21.63;2.60;;;7.80;99.90;;;;;;5061418;28;38640;-79
2022/01/21 09:51:00;;;;;;;16.90;3.30;;;7.90;99.90;;;;;;5082348;28;39756;-81
2022/01/21 09:53:34;;;;;;;13.10;2.47;;;7.90;99.90;;;;;;5081557;27;39606;-79
2022/01/21 09:56:04;;;;;;;14.50;1.80;;;7.90;99.90;;;;;;5076753;27;37724;-80
2022/01/21 09:58:31;;;;;;;11.90;1.70;;;7.90;99.90;;;;;;5082198;28;48854;-79
2022/01/21 10:00:59;;;;;;;10.87;1.47;;;7.90;99.90;;;;;;5063603;28;39425;-79
2022/01/21 10:03:27;;;;;;;14.70;1.13;;;7.90;99.90;;;;;;5066675;28;39408;-80
2022/01/21 10:05:54;;;;;;;9.87;1.20;;;7.90;99.90;;;;;;5063354;28;38005;-79
2022/01/21 10:08:23;;;;;;;9.03;1.37;;;8.00;99.90;;;;;;5078300;28;37273;-80
2022/01/21 10:10:49;;;;;;;12.57;1.73;;;8.00;99.90;;;;;;5055255;28;39782;-79
2022/01/21 10:13:17;;;;;;;8.57;1.53;;;8.00;99.90;;;;;;5062464;28;38863;-79
2022/01/21 10:15:43;;;;;;;10.93;1.40;;;8.10;99.90;;;;;;5060277;28;38227;-80
2022/01/21 10:18:18;;;;;;;8.87;1.00;;;8.10;99.90;;;;;;5057429;28;38193;-80
2022/01/21 10:21:02;;;;;;;12.37;1.60;;;8.00;99.90;;;;;;5080058;27;39772;-79
2022/01/21 10:23:31;;;;;;;8.53;1.70;;;7.90;99.90;;;;;;5061085;28;47018;-81
2022/01/21 10:26:01;;;;;;;14.27;1.60;;;8.00;99.90;;;;;;5076379;27;38552;-78
2022/01/21 10:28:27;;;;;;;9.77;1.30;;;7.90;99.90;;;;;;5080630;28;48736;-80
2022/01/21 10:31:16;;;;;;;7.70;1.33;;;8.00;99.90;;;;;;5077148;28;38593;-79
2022/01/21 10:33:56;;;;;;;9.73;1.77;;;8.20;99.90;;;;;;5055470;28;47582;-79
2022/01/21 10:36:27;;;;;;;9.07;1.93;;;8.50;99.90;;;;;;5041056;28;38051;-79
2022/01/21 10:39:07;;;;;;;14.93;1.73;;;8.60;99.90;;;;;;5033364;28;37145;-79
2022/01/21 10:41:35;;;;;;;21.33;1.90;;;8.60;99.90;;;;;;5038751;28;47155;-79
2022/01/21 10:44:13;;;;;;;11.33;1.47;;;8.60;99.90;;;;;;5042052;28;39189;-80
2022/01/21 10:46:46;;;;;;;14.50;1.47;;;8.50;99.90;;;;;;5041225;28;49044;-79
2022/01/21 10:49:14;;;;;;;15.47;1.97;;;8.60;99.90;;;;;;5041585;28;37981;-79
2022/01/21 10:51:48;;;;;;;10.33;1.83;;;8.60;99.90;;;;;;5038910;28;38490;-79
2022/01/21 10:54:26;;;;;;;17.63;2.10;;;8.60;99.90;;;;;;5042645;28;39355;-79
2022/01/21 10:57:10;;;;;;;9.60;1.50;;;8.60;99.90;;;;;;5040722;28;38516;-79
2022/01/21 10:59:59;;;;;;;11.03;1.40;;;8.60;99.90;;;;;;5040136;28;49314;-81
2022/01/21 11:02:36;;;;;;;9.43;1.53;;;8.50;99.90;;;;;;5042750;28;39453;-80
2022/01/21 11:05:14;;;;;;;20.03;1.90;;;8.50;99.90;;;;;;5044016;28;39228;-81
2022/01/21 11:07:48;;;;;;;14.47;2.03;;;8.50;99.90;;;;;;5039658;28;47318;-82
2022/01/21 11:10:33;;;;;;;13.97;1.73;;;8.50;99.90;;;;;;5046468;28;37259;-82
2022/01/21 11:13:25;;;;;;;19.20;2.17;;;8.50;99.90;;;;;;5048927;28;38103;-82
2022/01/21 11:15:55;;;;;;;14.87;1.83;;;8.50;99.90;;;;;;5025758;28;47668;-83
2022/01/21 11:18:22;;;;;;;14.40;2.40;;;8.50;99.90;;;;;;5048234;28;37675;-80
2022/01/21 11:20:59;;;;;;;15.07;1.87;;;8.40;99.90;;;;;;5042670;28;37157;-82
2022/01/21 11:23:27;;;;;;;7.70;1.43;;;8.40;99.90;;;;;;5044000;28;38865;-81
2022/01/21 11:25:57;;;;;;;7.67;1.20;;;8.30;99.90;;;;;;5046236;28;39831;-81
2022/01/21 11:28:41;;;;;;;6.90;1.23;;;8.20;99.90;;;;;;5042802;28;39315;-81
2022/01/21 11:31:08;;;;;;;7.40;1.40;;;8.20;99.90;;;;;;5044764;28;36998;-82
2022/01/21 11:33:35;;;;;;;10.93;1.50;;;8.10;99.90;;;;;;5041830;28;38929;-82
2022/01/21 11:36:04;;;;;;;6.67;1.20;;;8.20;99.90;;;;;;5046108;27;37440;-79
2022/01/21 11:38:33;;;;;;;11.87;2.13;;;8.20;99.90;;;;;;5058273;28;37958;-81
2022/01/21 11:41:00;;;;;;;8.63;1.27;;;8.20;99.90;;;;;;5078929;27;36078;-81
2022/01/21 11:43:30;;;;;;;8.17;1.77;;;8.20;99.90;;;;;;5067288;28;37283;-81
2022/01/21 11:51:16;;;;;;;19.60;2.60;;;8.30;99.90;;;;;;5058127;27;37521;-78
2022/01/21 11:53:50;;;;;;;15.17;2.50;;;8.40;99.90;;;;;;5058347;28;40996;-80
2022/01/21 11:56:42;;;;;;;13.30;2.00;;;8.40;99.90;;;;;;5061187;28;39667;-81
2022/01/21 11:59:11;;;;;;;11.43;2.13;;;8.50;99.90;;;;;;5059899;28;38937;-82
2022/01/21 12:01:46;;;;;;;18.03;2.30;;;8.60;99.90;;;;;;5057984;28;38127;-80
2022/01/21 12:04:13;;;;;;;13.10;2.83;;;8.60;99.90;;;;;;5059323;28;40133;-81
2022/01/21 12:06:39;;;;;;;9.37;1.93;;;8.70;99.90;;;;;;5065589;27;40645;-81
2022/01/21 12:09:08;;;;;;;19.13;2.33;;;8.90;99.90;;;;;;5071444;27;37641;-81
2022/01/21 12:11:38;;;;;;;18.97;2.37;;;9.00;99.90;;;;;;5063833;27;38019;-81
2022/01/21 12:14:39;;;;;;;18.17;3.07;;;9.10;99.90;;;;;;5068477;28;38521;-81
2022/01/21 12:17:17;;;;;;;12.73;1.87;;;9.00;99.90;;;;;;5063482;27;37859;-81
2022/01/21 12:19:44;;;;;;;16.00;2.60;;;8.90;99.90;;;;;;5069767;28;37788;-80
2022/01/21 12:22:16;;;;;;;13.20;2.30;;;8.80;99.90;;;;;;5065330;27;37395;-81
2022/01/21 12:24:51;;;;;;;11.95;3.40;;;8.80;99.90;;;;;;5070406;28;38905;-81
2022/01/21 12:27:19;;;;;;;18.40;2.90;;;8.70;99.90;;;;;;5061041;28;38314;-82
2022/01/21 12:29:45;;;;;;;16.67;2.37;;;8.70;99.90;;;;;;5063454;28;38096;-81
2022/01/21 12:32:22;;;;;;;17.17;3.30;;;8.80;99.90;;;;;;5056532;27;37383;-81
2022/01/21 12:34:58;;;;;;;19.00;2.63;;;8.90;99.90;;;;;;5079628;28;38135;-81
2022/01/21 12:37:37;;;;;;;9.03;2.33;;;8.90;99.90;;;;;;5080223;27;38942;-80
2022/01/21 12:40:03;;;;;;;17.60;2.80;;;9.00;99.90;;;;;;5081090;28;39875;-79
2022/01/21 12:42:35;;;;;;;15.37;2.33;;;9.00;99.90;;;;;;5077297;27;47057;-81
2022/01/21 12:45:07;;;;;;;16.80;2.55;;;9.10;99.90;;;;;;5070843;28;38970;-82
2022/01/21 12:47:41;;;;;;;11.13;2.55;;;9.10;99.90;;;;;;5073586;28;45804;-82
2022/01/21 12:50:19;;;;;;;22.50;2.93;;;9.10;99.90;;;;;;5073290;28;36588;-82
2022/01/21 12:52:55;;;;;;;15.67;2.40;;;9.10;99.90;;;;;;5064906;28;37021;-82
2022/01/21 12:58:16;;;;;;;18.90;2.67;;;9.00;99.90;;;;;;5085332;28;38991;-82
2022/01/21 13:00:43;;;;;;;23.83;2.40;;;8.80;99.90;;;;;;5080548;28;37529;-82
2022/01/21 13:03:42;;;;;;;22.77;3.10;;;8.70;99.90;;;;;;5070808;27;36341;-81
2022/01/21 13:06:21;;;;;;;20.77;3.17;;;8.60;99.90;;;;;;5037579;27;37883;-82
2022/01/21 13:09:10;;;;;;;21.00;3.97;;;8.50;99.90;;;;;;5071972;28;37343;-82
2022/01/21 13:11:41;;;;;;;23.43;3.77;;;8.40;99.90;;;;;;5064916;28;48274;-82
2022/01/21 13:14:34;;;;;;;19.37;3.20;;;8.30;99.90;;;;;;5084897;28;37238;-83
2022/01/21 13:17:00;;;;;;;;;;;8.30;99.90;;;;;;5069502;28;38160;-82
2022/01/21 13:19:28;;;;;;;24.63;3.20;;;8.30;99.90;;;;;;5066416;28;38383;-82
2022/01/21 13:21:54;;;;;;;22.60;2.80;;;8.40;99.90;;;;;;5067384;28;36906;-81
2022/01/21 13:24:29;;;;;;;15.43;2.43;;;8.40;99.90;;;;;;5082940;28;35954;-82
2022/01/21 13:26:56;;;;;;;24.40;2.63;;;8.40;99.90;;;;;;5080823;27;39630;-82
2022/01/21 13:29:34;;;;;;;18.60;3.03;;;8.40;99.90;;;;;;5088254;27;38826;-82
2022/01/21 13:32:03;;;;;;;18.83;3.30;;;8.30;99.90;;;;;;5077470;27;37242;-80
2022/01/21 13:34:36;;;;;;;19.13;3.20;;;8.30;99.90;;;;;;5068062;28;47352;-82
2022/01/21 13:37:04;;;;;;;26.80;3.50;;;8.20;99.90;;;;;;5084154;27;38563;-82
2022/01/21 13:39:39;;;;;;;14.00;3.03;;;8.10;99.90;;;;;;5088674;28;38588;-81
2022/01/21 13:42:12;;;;;;;16.97;2.80;;;8.10;99.90;;;;;;5061178;27;37760;-81
2022/01/21 13:44:38;;;;;;;;;;;8.10;99.90;;;;;;5075309;27;37100;-79
2022/01/21 13:47:26;;;;;;;13.53;2.27;;;8.10;99.90;;;;;;5087085;27;39994;-81
2022/01/21 13:49:53;;;;;;;14.97;2.93;;;8.10;99.90;;;;;;5070834;28;38148;-81
2022/01/21 13:52:19;;;;;;;10.57;2.40;;;8.10;99.90;;;;;;5067164;27;37615;-81
2022/01/21 13:54:48;;;;;;;20.10;2.33;;;8.10;99.90;;;;;;5088041;28;37099;-82